Time;durP1;ratioP1;P1;durP2;ratioP2;P2;SDS_P1;SDS_P2;PMS_P1;PMS_P2;Temp;Humidity;BMP_temperature;BMP_pressure;BME280_temperature;BME280_humidity;BME280_pressure;Samples;Min_cycle;Max_cycle;Signal;HPM_P1;HPM_P2
2023/11/08 00:00:23;;;;;;;14.43;3.80;;;;;;;11.11;71.91;94036.94;5064923;28;20090;-77
2023/11/08 00:02:49;;;;;;;12.77;4.47;;;;;;;11.10;71.99;94041.50;5064912;28;20131;-77
2023/11/08 00:05:15;;;;;;;14.85;3.45;;;;;;;11.11;72.14;94034.28;5065003;28;20131;-77
2023/11/08 00:07:41;;;;;;;13.40;3.70;;;;;;;11.13;72.13;94018.75;5097172;28;20032;-77
2023/11/08 00:10:12;;;;;;;11.27;3.58;;;;;;;11.17;71.82;94004.50;5097486;28;20032;-77
2023/11/08 00:12:38;;;;;;;14.07;3.58;;;;;;;11.21;71.65;93997.44;5064848;28;20061;-77
2023/11/08 00:15:07;;;;;;;15.73;3.83;;;;;;;11.25;71.65;94010.91;5063540;28;20021;-77
2023/11/08 00:17:33;;;;;;;20.33;6.07;;;;;;;11.29;71.68;94001.19;5064495;28;20029;-77
2023/11/08 00:19:58;;;;;;;9.60;3.45;;;;;;;11.30;71.86;94000.09;5064742;28;20086;-77
2023/11/08 00:22:23;;;;;;;12.38;4.35;;;;;;;11.28;71.81;93983.63;5064513;28;20220;-77
2023/11/08 00:24:49;;;;;;;17.67;3.97;;;;;;;11.28;71.89;93988.94;5064648;28;20021;-77
2023/11/08 00:27:14;;;;;;;12.18;3.67;;;;;;;11.28;72.09;93980.16;5064397;28;20025;-77
2023/11/08 00:29:40;;;;;;;13.60;3.60;;;;;;;11.24;71.46;93985.34;5064430;28;20043;-77
2023/11/08 00:32:06;;;;;;;16.65;3.35;;;;;;;11.23;71.61;93983.75;5064322;28;20215;-77
2023/11/08 00:34:31;;;;;;;14.40;3.35;;;;;;;11.23;71.73;93986.41;5063840;28;20031;-77
2023/11/08 00:36:57;;;;;;;10.50;3.42;;;;;;;11.27;71.60;93990.03;5064250;28;20016;-76
2023/11/08 00:39:22;;;;;;;17.50;4.43;;;;;;;11.29;71.34;93971.03;5064112;28;20060;-77
2023/11/08 00:41:48;;;;;;;13.52;3.65;;;;;;;11.34;71.59;93982.34;5064223;28;20017;-76
2023/11/08 00:44:14;;;;;;;13.43;3.58;;;;;;;11.23;71.43;93986.41;5064073;28;20020;-76
2023/11/08 00:46:40;;;;;;;13.90;4.00;;;;;;;11.20;71.19;93963.81;5062836;28;20028;-77
2023/11/08 00:49:06;;;;;;;17.42;4.72;;;;;;;11.18;71.28;93963.34;5063928;28;20024;-75
2023/11/08 00:51:32;;;;;;;18.38;4.65;;;;;;;11.18;71.73;93970.59;5064289;28;20027;-75
2023/11/08 00:54:00;;;;;;;12.10;3.97;;;;;;;11.12;72.05;93953.94;5063811;28;20016;-75
2023/11/08 00:56:26;;;;;;;10.48;4.38;;;;;;;11.17;71.91;93958.34;5063977;28;20017;-76
2023/11/08 00:58:51;;;;;;;11.77;3.80;;;;;;;11.22;71.88;93944.84;5063818;28;20024;-77
2023/11/08 01:01:17;;;;;;;8.52;3.47;;;;;;;11.26;72.11;93953.78;5063741;28;20105;-77
2023/11/08 01:03:42;;;;;;;14.38;3.75;;;;;;;11.29;71.97;93963.81;5063695;28;20211;-75
2023/11/08 01:06:08;;;;;;;16.10;3.95;;;;;;;11.28;72.05;93956.16;5063637;28;20017;-75
2023/11/08 01:08:33;;;;;;;11.13;3.97;;;;;;;11.28;71.99;93954.25;5063569;28;20227;-75
2023/11/08 01:10:59;;;;;;;17.00;4.53;;;;;;;11.32;72.07;93968.53;5063840;28;20012;-75
2023/11/08 01:13:24;;;;;;;16.20;3.85;;;;;;;11.32;71.76;93955.19;5063593;28;20319;-74
2023/11/08 01:15:50;;;;;;;11.90;4.20;;;;;;;11.30;71.79;93940.63;5063485;28;20024;-75
2023/11/08 01:18:16;;;;;;;13.98;4.43;;;;;;;11.28;72.04;93934.81;5063452;28;20089;-74
2023/11/08 01:20:41;;;;;;;18.67;3.88;;;;;;;11.31;72.41;93940.28;5063292;28;20092;-75
2023/11/08 01:23:08;;;;;;;13.23;4.82;;;;;;;11.30;72.24;93927.28;5063489;28;20025;-75
2023/11/08 01:25:33;;;;;;;15.48;4.00;;;;;;;11.29;72.52;93923.03;5063335;28;20028;-75
2023/11/08 01:27:59;;;;;;;11.48;3.63;;;;;;;11.30;72.30;93930.72;5063634;28;20361;-75
2023/11/08 01:30:25;;;;;;;14.70;4.38;;;;;;;11.27;72.18;93935.91;5063159;28;20025;-74
2023/11/08 01:32:50;;;;;;;14.00;4.05;;;;;;;11.29;72.29;93931.81;5063361;28;20029;-77
2023/11/08 01:35:18;;;;;;;17.08;3.10;;;;;;;11.29;72.51;93950.47;5063105;28;20210;-77
2023/11/08 01:37:44;;;;;;;9.65;3.90;;;;;;;11.29;72.15;93931.81;5063128;28;20025;-77
2023/11/08 01:40:10;;;;;;;14.35;3.95;;;;;;;11.28;72.44;93919.56;5063031;28;20063;-78
2023/11/08 01:42:36;;;;;;;18.52;3.75;;;;;;;11.22;72.39;93905.59;5063083;28;20323;-78
2023/11/08 01:45:02;;;;;;;22.35;5.28;;;;;;;11.19;72.84;93921.44;5062391;28;20051;-77
2023/11/08 01:47:29;;;;;;;15.85;3.70;;;;;;;11.19;73.56;93921.44;5062005;28;20062;-77
2023/11/08 01:49:54;;;;;;;16.65;4.20;;;;;;;11.15;73.57;93915.94;5062902;28;20021;-77
2023/11/08 01:52:21;;;;;;;12.32;4.10;;;;;;;11.17;73.92;93912.97;5062882;28;20025;-77
2023/11/08 01:54:49;;;;;;;13.40;3.95;;;;;;;11.15;74.36;93893.84;5062966;28;20358;-77
2023/11/08 01:57:15;;;;;;;11.63;3.80;;;;;;;11.13;73.96;93888.81;5062859;28;20020;-77
2023/11/08 01:59:42;;;;;;;14.18;4.18;;;;;;;11.14;73.89;93873.59;5062735;28;20319;-77
2023/11/08 02:02:08;;;;;;;13.90;3.95;;;;;;;11.10;73.73;93878.78;5095134;28;20025;-77
2023/11/08 02:04:35;;;;;;;8.70;4.38;;;;;;;11.06;73.37;93877.06;5062895;28;20364;-77
2023/11/08 02:07:01;;;;;;;16.10;4.53;;;;;;;11.07;73.63;93879.41;5061892;28;20043;-77
2023/11/08 02:09:27;;;;;;;14.77;6.38;;;;;;;11.08;72.92;93861.53;5062850;28;20040;-78
2023/11/08 02:11:53;;;;;;;15.75;3.92;;;;;;;11.09;73.21;93877.19;5095152;28;20021;-78
2023/11/08 02:14:19;;;;;;;13.10;4.72;;;;;;;11.04;73.40;93883.50;5061573;28;20200;-78
2023/11/08 02:16:45;;;;;;;12.95;4.15;;;;;;;11.06;73.36;93869.06;5062860;28;20017;-78
2023/11/08 02:19:11;;;;;;;15.00;4.18;;;;;;;11.04;73.92;93872.81;5062695;28;20028;-78
2023/11/08 02:21:36;;;;;;;10.40;3.97;;;;;;;11.07;73.82;93867.94;5061245;28;20021;-79
2023/11/08 02:24:16;;;;;;;15.38;4.13;;;;;;;11.10;73.84;93859.34;5061590;28;20021;-79
2023/11/08 02:26:43;;;;;;;13.85;3.88;;;;;;;11.06;74.03;93879.72;5061394;28;20040;-75
2023/11/08 02:29:08;;;;;;;13.50;5.03;;;;;;;10.95;74.45;93879.25;5062670;28;20025;-75
2023/11/08 02:31:33;;;;;;;14.30;4.70;;;;;;;10.94;74.42;93867.81;5062638;28;20063;-75
2023/11/08 02:33:59;;;;;;;10.43;4.53;;;;;;;10.91;73.92;93889.78;5062704;28;20027;-75
2023/11/08 02:36:26;;;;;;;10.80;5.00;;;;;;;10.82;74.31;93871.09;5062432;28;20114;-79
2023/11/08 02:38:51;;;;;;;13.90;5.32;;;;;;;10.76;74.83;93899.00;5062419;28;20277;-79
2023/11/08 02:41:16;;;;;;;16.60;5.05;;;;;;;10.70;74.90;93896.81;5062368;28;20024;-79
2023/11/08 02:43:43;;;;;;;10.60;4.90;;;;;;;10.68;74.99;93901.69;5062410;28;20074;-79
2023/11/08 02:46:09;;;;;;;13.38;5.07;;;;;;;10.67;75.09;93918.78;5062498;28;20024;-78
2023/11/08 02:48:34;;;;;;;15.45;4.90;;;;;;;10.49;75.31;93900.09;5062428;28;20095;-78
2023/11/08 02:51:00;;;;;;;15.00;4.15;;;;;;;10.49;75.69;93886.75;5062463;28;20017;-78
2023/11/08 02:53:25;;;;;;;13.82;4.22;;;;;;;10.54;75.82;93891.94;5062579;28;20056;-78
2023/11/08 02:55:50;;;;;;;12.98;5.20;;;;;;;10.55;75.95;93898.84;5062402;28;20024;-78
2023/11/08 02:58:16;;;;;;;18.58;4.03;;;;;;;10.51;75.74;93881.13;5065879;28;20096;-78
2023/11/08 03:00:41;;;;;;;11.30;3.22;;;;;;;10.55;76.00;93885.50;5066092;28;20104;-78
2023/11/08 03:03:07;;;;;;;17.23;4.45;;;;;;;10.52;75.90;93862.16;5098652;28;20043;-78
2023/11/08 03:05:32;;;;;;;13.25;4.32;;;;;;;10.54;76.05;93881.28;5066347;28;20298;-78
2023/11/08 03:07:58;;;;;;;15.60;4.13;;;;;;;10.58;75.95;93882.25;5066264;28;20318;-77
2023/11/08 03:10:24;;;;;;;12.30;3.92;;;;;;;10.60;75.96;93893.38;5065897;28;20021;-78
2023/11/08 03:12:51;;;;;;;11.70;3.90;;;;;;;10.58;76.01;93876.91;5065830;28;20214;-77
2023/11/08 03:15:23;;;;;;;11.73;3.80;;;;;;;10.60;75.87;93868.56;5065698;28;20032;-77
2023/11/08 03:17:52;;;;;;;15.13;3.70;;;;;;;10.61;75.93;93886.94;5064642;28;20051;-77
2023/11/08 03:20:19;;;;;;;20.48;4.57;;;;;;;10.48;76.33;93863.09;5065610;28;20219;-77
2023/11/08 03:22:44;;;;;;;14.68;3.72;;;;;;;10.44;76.66;93874.38;5064434;28;20064;-78
2023/11/08 03:25:11;;;;;;;12.68;3.33;;;;;;;10.40;76.74;93857.44;5065942;28;20047;-78
2023/11/08 03:27:43;;;;;;;15.45;4.35;;;;;;;10.44;76.92;93841.59;5065558;28;20020;-77
2023/11/08 03:30:13;;;;;;;10.90;3.42;;;;;;;10.40;77.08;93859.31;5065568;28;20021;-77
2023/11/08 03:32:39;;;;;;;18.67;4.05;;;;;;;10.42;76.88;93841.13;5065575;28;20029;-77
2023/11/08 03:35:05;;;;;;;8.73;3.60;;;;;;;10.43;76.90;93842.69;5097949;28;20390;-77
2023/11/08 03:37:38;;;;;;;18.35;3.80;;;;;;;10.39;76.75;93863.84;5065383;28;20024;-75
2023/11/08 03:40:05;;;;;;;16.63;3.80;;;;;;;10.34;77.20;93877.34;5065118;28;20072;-74
2023/11/08 03:42:34;;;;;;;15.65;4.70;;;;;;;10.38;77.17;93866.81;5065447;28;20049;-74
2023/11/08 03:45:03;;;;;;;11.60;3.45;;;;;;;10.43;76.98;93856.81;5065299;28;20024;-76
2023/11/08 03:47:30;;;;;;;12.90;4.07;;;;;;;10.50;76.88;93880.34;5065322;28;20050;-75
2023/11/08 03:49:56;;;;;;;16.10;3.80;;;;;;;10.48;76.96;93871.84;5065110;28;20070;-76
2023/11/08 03:52:23;;;;;;;12.57;3.17;;;;;;;10.50;76.98;93875.03;5065019;28;20033;-75
2023/11/08 03:54:49;;;;;;;10.95;3.20;;;;;;;10.53;77.10;93876.28;5065112;28;20020;-75
2023/11/08 03:57:15;;;;;;;20.92;3.25;;;;;;;10.54;77.30;93873.28;5065118;28;20071;-75
2023/11/08 03:59:40;;;;;;;9.25;3.17;;;;;;;10.60;77.16;93869.38;5064774;28;20311;-76
2023/11/08 04:02:05;;;;;;;15.07;3.17;;;;;;;10.63;77.01;93846.66;5064985;28;20016;-76
2023/11/08 04:04:31;;;;;;;10.88;3.50;;;;;;;10.68;77.19;93864.34;5065003;28;20032;-75
2023/11/08 04:06:56;;;;;;;14.23;3.22;;;;;;;10.69;76.98;93863.28;5063768;28;20020;-76
2023/11/08 04:09:22;;;;;;;6.60;2.70;;;;;;;10.69;77.07;93871.28;5063731;28;20215;-76
2023/11/08 04:11:47;;;;;;;12.88;3.30;;;;;;;10.72;77.07;93873.28;5064727;28;20017;-75
2023/11/08 04:14:13;;;;;;;11.73;3.45;;;;;;;10.72;76.76;93873.28;5064749;28;20021;-75
2023/11/08 04:16:39;;;;;;;23.40;4.15;;;;;;;10.73;76.44;93878.31;5064554;28;20044;-76
2023/11/08 04:19:05;;;;;;;8.65;3.13;;;;;;;10.68;77.12;93853.69;5064640;28;20095;-76
2023/11/08 04:21:31;;;;;;;14.60;3.20;;;;;;;10.74;77.14;93879.09;5064654;28;20048;-75
2023/11/08 04:23:56;;;;;;;12.77;4.05;;;;;;;10.71;76.94;93877.06;5063274;28;20215;-75
2023/11/08 04:26:22;;;;;;;16.10;3.10;;;;;;;10.63;77.40;93847.41;5063313;28;20029;-76
2023/11/08 04:28:47;;;;;;;22.13;4.15;;;;;;;10.72;77.80;93849.31;5064287;28;20053;-76
2023/11/08 04:31:13;;;;;;;9.52;3.58;;;;;;;10.74;77.42;93833.78;5064384;28;20017;-76
2023/11/08 04:33:38;;;;;;;11.75;2.90;;;;;;;10.82;77.55;93851.66;5064239;28;20115;-76
2023/11/08 04:36:05;;;;;;;15.02;3.72;;;;;;;10.81;77.86;93848.22;5064230;28;20024;-76
2023/11/08 04:38:30;;;;;;;13.10;3.55;;;;;;;10.87;77.66;93854.19;5064055;28;20328;-76
2023/11/08 04:40:56;;;;;;;13.55;3.85;;;;;;;10.91;77.88;93855.13;5062640;28;20028;-76
2023/11/08 04:43:22;;;;;;;7.68;3.95;;;;;;;11.00;77.69;93881.78;5064244;28;20029;-76
2023/11/08 04:45:47;;;;;;;10.10;3.40;;;;;;;11.02;77.26;93871.56;5064055;28;20047;-76
2023/11/08 04:48:13;;;;;;;11.43;3.78;;;;;;;11.03;76.98;93865.94;5063804;28;20092;-77
2023/11/08 04:50:40;;;;;;;11.45;4.22;;;;;;;11.08;76.85;93877.53;5062733;28;20066;-76
2023/11/08 04:53:05;;;;;;;13.73;3.22;;;;;;;11.04;76.97;93872.03;5063835;28;20024;-77
2023/11/08 04:55:31;;;;;;;9.57;2.53;;;;;;;11.04;77.43;93869.38;5064078;28;20031;-77
2023/11/08 04:57:57;;;;;;;20.80;4.45;;;;;;;11.07;77.43;93894.63;5063639;28;20219;-77
2023/11/08 05:00:22;;;;;;;8.48;2.92;;;;;;;11.02;77.45;93875.03;5063733;28;20104;-77
2023/11/08 05:02:48;;;;;;;13.73;3.03;;;;;;;11.03;77.67;93891.78;5063777;28;20069;-76
2023/11/08 05:05:15;;;;;;;19.08;3.55;;;;;;;11.09;77.61;93885.19;5062380;28;20031;-76
2023/11/08 05:07:42;;;;;;;9.98;3.15;;;;;;;11.19;77.52;93905.44;5063838;28;20021;-75
2023/11/08 05:10:09;;;;;;;11.10;2.78;;;;;;;11.13;78.09;93882.69;5063574;28;20028;-75
2023/11/08 05:12:35;;;;;;;10.73;3.50;;;;;;;11.19;78.02;93857.44;5095868;28;20024;-75
2023/11/08 05:15:01;;;;;;;12.15;3.40;;;;;;;11.25;77.72;93866.84;5062529;28;20029;-75
2023/11/08 05:17:26;;;;;;;18.13;3.03;;;;;;;11.26;77.53;93863.06;5063666;28;20200;-75
2023/11/08 05:19:52;;;;;;;7.70;2.90;;;;;;;11.30;77.53;93879.25;5063196;28;20021;-75
2023/11/08 05:22:17;;;;;;;18.05;3.85;;;;;;;11.36;77.46;93869.97;5063122;28;20020;-75
2023/11/08 05:24:43;;;;;;;10.82;3.65;;;;;;;11.47;77.42;93841.06;5063430;28;20021;-76
2023/11/08 05:27:11;;;;;;;13.73;3.08;;;;;;;11.51;76.83;93882.03;5063319;28;20043;-76
2023/11/08 05:29:37;;;;;;;12.50;3.17;;;;;;;11.49;76.66;93877.00;5063084;28;20028;-76
2023/11/08 05:32:03;;;;;;;10.43;3.30;;;;;;;11.56;76.41;93863.16;5063349;28;20218;-76
2023/11/08 05:34:28;;;;;;;14.18;3.40;;;;;;;11.62;76.63;93876.03;5063179;28;20029;-76
2023/11/08 05:36:54;;;;;;;19.10;4.13;;;;;;;11.72;76.29;93880.22;5061819;28;20029;-77
2023/11/08 05:39:23;;;;;;;15.20;4.32;;;;;;;11.77;76.21;93877.38;5063186;28;20091;-77
2023/11/08 05:41:51;;;;;;;13.77;3.20;;;;;;;11.82;75.90;93889.78;5062916;28;20024;-77
2023/11/08 05:44:17;;;;;;;12.65;3.90;;;;;;;11.88;75.52;93891.16;5061716;28;20318;-76
2023/11/08 05:46:42;;;;;;;14.45;3.80;;;;;;;11.91;75.39;93876.44;5062995;28;20036;-76
2023/11/08 05:49:08;;;;;;;17.42;5.25;;;;;;;11.96;75.09;93898.38;5095613;28;20024;-76
2023/11/08 05:51:34;;;;;;;15.00;3.00;;;;;;;11.99;75.07;93895.09;5061763;28;20021;-77
2023/11/08 05:54:00;;;;;;;16.08;2.83;;;;;;;12.07;75.03;93901.50;5095683;28;20066;-83
2023/11/08 05:56:26;;;;;;;16.80;3.78;;;;;;;12.17;74.43;93901.16;5062998;28;20027;-82
2023/11/08 05:58:51;;;;;;;15.20;3.95;;;;;;;12.19;73.90;93896.28;5061884;28;20021;-83
2023/11/08 06:01:19;;;;;;;19.58;2.92;;;;;;;12.26;73.44;93878.94;5062702;28;20055;-83
2023/11/08 06:03:45;;;;;;;9.23;2.80;;;;;;;12.31;73.43;93895.56;5063013;28;20027;-82
2023/11/08 06:06:11;;;;;;;10.05;3.38;;;;;;;12.36;73.88;93895.38;5095200;28;20024;-82
2023/11/08 06:08:36;;;;;;;15.95;5.22;;;;;;;12.32;73.77;93885.69;5062861;28;20341;-83
2023/11/08 06:11:04;;;;;;;15.85;3.80;;;;;;;12.40;73.61;93882.16;5062920;28;20020;-82
2023/11/08 06:13:32;;;;;;;20.30;4.47;;;;;;;12.48;73.57;93888.56;5062996;28;20024;-83
2023/11/08 06:15:58;;;;;;;27.08;4.95;;;;;;;12.55;73.19;93878.13;5062922;28;20017;-82
2023/11/08 06:18:26;;;;;;;24.30;5.55;;;;;;;12.65;72.78;93904.50;5062778;28;20096;-83
2023/11/08 06:20:52;;;;;;;22.15;5.07;;;;;;;12.73;71.92;93886.84;5062660;28;20025;-82
2023/11/08 06:23:17;;;;;;;20.58;5.82;;;;;;;12.83;71.71;93894.47;5062700;28;20029;-82
2023/11/08 06:25:43;;;;;;;24.10;5.60;;;;;;;12.91;71.84;93907.00;5062275;28;20021;-82
2023/11/08 06:28:09;;;;;;;25.00;6.45;;;;;;;12.97;72.28;93908.38;5061806;28;20033;-82
2023/11/08 06:30:35;;;;;;;27.40;6.10;;;;;;;13.07;72.04;93909.88;5062537;28;20321;-82
2023/11/08 06:33:02;;;;;;;33.63;7.95;;;;;;;13.15;72.03;93926.97;5065640;28;20265;-84
2023/11/08 06:35:27;;;;;;;28.17;6.93;;;;;;;13.18;71.37;93919.06;5063631;28;20361;-83
2023/11/08 06:37:53;;;;;;;27.38;8.55;;;;;;;13.25;71.54;93922.00;5064643;28;20024;-84
2023/11/08 06:40:18;;;;;;;27.08;7.35;;;;;;;13.33;71.77;93907.00;5064467;28;20056;-83
2023/11/08 06:42:44;;;;;;;24.60;7.95;;;;;;;13.38;71.28;93912.16;5064626;28;20035;-83
2023/11/08 06:45:09;;;;;;;27.38;7.75;;;;;;;13.44;71.24;93908.16;5064532;28;20017;-83
2023/11/08 06:47:35;;;;;;;27.63;5.95;;;;;;;13.51;71.08;93901.47;5063953;28;20028;-83
2023/11/08 06:50:01;;;;;;;33.50;10.82;;;;;;;13.59;70.98;93908.66;5066423;28;20084;-85
2023/11/08 06:52:26;;;;;;;39.53;10.55;;;;;;;13.62;71.01;93908.00;5066775;28;20025;-85
2023/11/08 06:54:52;;;;;;;32.63;9.63;;;;;;;13.62;71.12;93916.03;5066916;28;20319;-85
2023/11/08 06:57:17;;;;;;;31.23;9.57;;;;;;;13.66;70.92;93924.97;5066531;28;20255;-86
2023/11/08 06:59:43;;;;;;;31.20;10.60;;;;;;;13.68;71.59;93909.34;5066657;28;20021;-86
2023/11/08 07:02:09;;;;;;;29.42;10.73;;;;;;;13.72;71.79;93914.81;5065360;28;20196;-85
2023/11/08 07:04:35;;;;;;;27.48;8.30;;;;;;;13.76;71.92;93948.66;5065724;28;20025;-85
2023/11/08 07:07:04;;;;;;;42.13;8.70;;;;;;;13.79;72.68;93945.31;5067051;28;20020;-85
2023/11/08 07:09:30;;;;;;;31.08;7.03;;;;;;;13.78;71.94;93953.66;5066627;28;20021;-88
2023/11/08 07:11:57;;;;;;;23.73;7.63;;;;;;;13.76;74.12;93956.69;5066191;28;20027;-83
2023/11/08 07:14:23;;;;;;;21.85;6.93;;;;;;;13.75;76.46;93967.75;5065845;28;20138;-84
2023/11/08 07:16:48;;;;;;;22.52;7.28;;;;;;;13.74;77.15;93956.25;5064479;28;20334;-84
2023/11/08 07:19:13;;;;;;;29.88;7.05;;;;;;;13.72;77.75;93949.63;5065650;28;20027;-84
2023/11/08 07:21:39;;;;;;;25.38;7.18;;;;;;;13.74;79.50;93937.50;5065212;28;20032;-83
2023/11/08 07:24:06;;;;;;;15.20;5.70;;;;;;;13.67;80.81;93920.38;5065555;28;20377;-83
2023/11/08 07:26:32;;;;;;;17.58;5.22;;;;;;;13.59;79.26;93935.44;5065654;28;20048;-83
2023/11/08 07:28:58;;;;;;;26.65;5.70;;;;;;;13.56;79.43;93926.16;5064238;28;20320;-83
2023/11/08 07:31:24;;;;;;;19.48;4.90;;;;;;;13.52;78.46;93938.66;5065548;28;20043;-83
2023/11/08 07:33:50;;;;;;;22.75;5.35;;;;;;;13.43;78.06;93922.66;5065386;28;20092;-84
2023/11/08 07:36:15;;;;;;;22.15;5.70;;;;;;;13.41;79.05;93934.78;5065206;28;20028;-84
2023/11/08 07:38:41;;;;;;;29.08;5.10;;;;;;;13.44;79.18;93939.50;5065022;28;20056;-83
2023/11/08 07:41:06;;;;;;;17.60;4.28;;;;;;;13.46;79.55;93948.00;5064931;28;20032;-83
2023/11/08 07:43:32;;;;;;;21.58;4.55;;;;;;;13.41;78.67;93951.66;5063930;28;20275;-83
2023/11/08 07:46:01;;;;;;;21.05;5.18;;;;;;;13.41;78.62;93970.41;5063759;28;20025;-84
2023/11/08 07:48:26;;;;;;;19.35;4.40;;;;;;;13.43;79.77;93964.69;5097542;28;20257;-84
2023/11/08 07:50:53;;;;;;;21.73;4.70;;;;;;;13.41;79.08;93954.34;5065023;28;20020;-84
2023/11/08 07:53:19;;;;;;;24.60;5.30;;;;;;;13.46;79.04;93949.91;5097405;28;20032;-85
2023/11/08 07:55:45;;;;;;;36.88;5.85;;;;;;;13.51;79.59;93933.63;5063755;28;20025;-84
2023/11/08 07:58:11;;;;;;;27.83;6.05;;;;;;;13.54;79.88;93901.63;5065068;28;20028;-84
2023/11/08 08:00:39;;;;;;;23.25;7.18;;;;;;;13.53;79.83;93883.19;5064730;28;20032;-83
2023/11/08 08:03:06;;;;;;;21.15;4.75;;;;;;;13.56;79.66;93879.88;5064794;28;20021;-83
2023/11/08 08:05:32;;;;;;;14.23;4.63;;;;;;;13.56;78.84;93871.84;5097431;28;20025;-82
2023/11/08 08:07:58;;;;;;;20.42;5.07;;;;;;;13.55;78.74;93886.31;5065064;28;20024;-83
2023/11/08 08:10:25;;;;;;;13.40;4.07;;;;;;;13.55;78.94;93862.22;5064582;28;20047;-82
2023/11/08 08:12:52;;;;;;;17.23;4.15;;;;;;;13.45;79.22;93844.69;5064769;28;20102;-82
2023/11/08 08:15:18;;;;;;;27.63;6.57;;;;;;;13.38;79.97;93861.28;5064607;28;20025;-82
2023/11/08 08:17:45;;;;;;;21.58;5.50;;;;;;;13.27;80.49;93876.19;5064504;28;20024;-82
2023/11/08 08:20:13;;;;;;;25.17;4.78;;;;;;;13.17;81.18;93892.63;5097147;28;20037;-81
2023/11/08 08:22:39;;;;;;;18.98;4.20;;;;;;;13.16;81.09;93899.09;5063289;28;20070;-81
2023/11/08 08:25:06;;;;;;;17.63;4.47;;;;;;;13.21;81.66;93882.84;5064326;28;20278;-82
2023/11/08 08:27:33;;;;;;;21.83;7.20;;;;;;;13.23;80.77;93907.38;5064683;28;20044;-82
2023/11/08 08:29:59;;;;;;;16.52;5.82;;;;;;;13.31;81.38;93901.19;5064389;28;20104;-82
2023/11/08 08:32:24;;;;;;;15.52;5.18;;;;;;;13.36;81.35;93919.72;5064111;28;20017;-81
2023/11/08 08:34:49;;;;;;;16.65;5.03;;;;;;;13.34;81.75;93913.16;5063161;28;20025;-82
2023/11/08 08:37:15;;;;;;;19.63;4.63;;;;;;;13.31;80.92;93905.75;5064250;28;20222;-82
2023/11/08 08:39:41;;;;;;;20.83;4.93;;;;;;;13.25;81.32;93897.13;5063931;28;20120;-86
2023/11/08 08:42:09;;;;;;;13.38;4.05;;;;;;;13.28;81.06;93912.53;5064009;28;20041;-84
2023/11/08 08:44:35;;;;;;;14.15;4.85;;;;;;;13.35;79.48;93910.16;5064437;28;20025;-85
2023/11/08 08:47:01;;;;;;;12.15;4.55;;;;;;;13.47;79.05;93885.28;5064228;28;20021;-84
2023/11/08 08:49:26;;;;;;;22.45;4.80;;;;;;;13.65;80.11;93888.56;5064158;28;20031;-85
2023/11/08 08:51:52;;;;;;;14.25;4.40;;;;;;;13.80;80.81;93896.00;5063987;28;20100;-86
2023/11/08 08:54:20;;;;;;;15.48;5.90;;;;;;;13.96;80.74;93888.09;5063212;28;20146;-87
2023/11/08 08:56:47;;;;;;;20.75;5.22;;;;;;;14.11;80.18;93885.88;5064145;28;20082;-85
2023/11/08 08:59:12;;;;;;;27.10;5.93;;;;;;;14.24;79.58;93892.78;5062963;28;20126;-86
2023/11/08 09:01:38;;;;;;;22.50;5.57;;;;;;;14.35;78.34;93882.41;5063746;28;20025;-85
2023/11/08 09:04:03;;;;;;;13.85;4.50;;;;;;;14.46;77.63;93896.94;5062365;28;20028;-83
2023/11/08 09:06:29;;;;;;;15.63;4.63;;;;;;;14.50;77.03;93907.78;5063689;28;20016;-85
2023/11/08 09:08:55;;;;;;;29.38;5.47;;;;;;;14.54;77.18;93898.72;5063716;28;20096;-84
2023/11/08 09:11:20;;;;;;;18.20;4.75;;;;;;;14.60;76.45;93894.72;5063424;28;20017;-83
2023/11/08 09:13:46;;;;;;;16.25;4.50;;;;;;;14.63;76.62;93922.75;5062515;28;20025;-83
2023/11/08 09:16:12;;;;;;;16.00;4.13;;;;;;;14.66;76.45;93932.81;5062306;28;20078;-82
2023/11/08 09:18:37;;;;;;;23.85;4.43;;;;;;;14.62;76.77;93932.69;5063827;28;20020;-84
2023/11/08 09:21:03;;;;;;;19.10;5.07;;;;;;;14.59;75.77;93928.03;5063151;28;20071;-83
2023/11/08 09:23:31;;;;;;;16.50;4.22;;;;;;;14.53;75.43;93923.97;5063447;28;20425;-82
2023/11/08 09:25:56;;;;;;;23.02;5.10;;;;;;;14.52;76.13;93932.34;5095876;28;20025;-82
2023/11/08 09:28:22;;;;;;;30.25;4.88;;;;;;;14.49;75.96;93939.19;5063353;28;20092;-85
2023/11/08 09:30:48;;;;;;;22.67;5.00;;;;;;;14.46;76.40;93945.19;5063052;28;20021;-84
2023/11/08 09:33:13;;;;;;;16.60;4.13;;;;;;;14.38;76.09;93952.22;5062155;28;20025;-84
2023/11/08 09:35:39;;;;;;;19.70;4.80;;;;;;;14.16;76.34;93933.88;5063240;28;20044;-86
2023/11/08 09:38:04;;;;;;;22.60;5.10;;;;;;;14.11;78.01;93972.41;5062943;28;20024;-80
2023/11/08 09:40:30;;;;;;;18.25;5.70;;;;;;;13.98;78.67;93952.84;5063257;28;20047;-81
2023/11/08 09:42:57;;;;;;;24.52;4.97;;;;;;;13.95;80.10;93964.22;5063128;28;20252;-80
2023/11/08 09:45:31;;;;;;;16.52;5.82;;;;;;;13.90;80.96;93979.72;5095284;28;20032;-79
2023/11/08 09:47:58;;;;;;;16.55;4.72;;;;;;;13.85;81.41;93975.34;5063171;28;20049;-82
2023/11/08 09:50:24;;;;;;;22.38;4.68;;;;;;;13.78;82.29;93970.53;5063036;28;20053;-80
2023/11/08 09:52:50;;;;;;;18.92;4.68;;;;;;;13.70;83.28;93978.66;5062944;28;20036;-80
2023/11/08 09:55:17;;;;;;;24.77;5.20;;;;;;;13.62;84.08;93966.91;5062630;28;20035;-81
2023/11/08 09:57:46;;;;;;;29.23;6.22;;;;;;;13.57;84.86;93985.84;5095417;28;20029;-82
2023/11/08 10:00:12;;;;;;;23.23;5.60;;;;;;;13.46;86.63;93972.09;5062721;28;20062;-82
2023/11/08 10:02:38;;;;;;;24.45;6.00;;;;;;;13.42;86.19;94000.63;5062724;28;20025;-82
2023/11/08 10:05:04;;;;;;;31.15;7.15;;;;;;;13.25;87.62;93985.47;5061451;28;20021;-82
2023/11/08 10:07:29;;;;;;;29.50;7.13;;;;;;;13.19;88.17;93992.13;5062282;28;20059;-82
2023/11/08 10:09:55;;;;;;;28.63;6.97;;;;;;;13.14;88.36;93986.94;5062556;28;20334;-82
2023/11/08 10:12:21;;;;;;;25.13;7.63;;;;;;;13.10;88.48;93978.00;5061229;28;20031;-82
2023/11/08 10:14:56;;;;;;;26.08;6.63;;;;;;;13.01;88.83;93992.22;5062764;28;20059;-81
2023/11/08 10:17:34;;;;;;;24.02;7.60;;;;;;;12.82;89.33;93987.31;5062581;28;20321;-82
2023/11/08 10:19:59;;;;;;;25.85;7.35;;;;;;;12.77;89.86;93976.00;5062570;28;20025;-81
2023/11/08 10:22:25;;;;;;;25.38;7.10;;;;;;;12.64;89.32;93957.19;5062546;28;20032;-81
2023/11/08 10:25:00;;;;;;;27.40;7.80;;;;;;;12.57;90.46;93954.22;5062494;28;20348;-82
2023/11/08 10:27:26;;;;;;;23.55;7.60;;;;;;;12.52;91.89;93946.41;5062649;28;20089;-82
2023/11/08 10:29:54;;;;;;;20.08;8.07;;;;;;;12.46;91.94;93939.69;5062454;28;20020;-77
2023/11/08 10:32:24;;;;;;;26.13;7.35;;;;;;;12.42;93.05;93954.81;5062103;28;20017;-83
2023/11/08 10:34:51;;;;;;;16.05;6.72;;;;;;;12.40;93.91;93941.75;5062599;28;20203;-81
2023/11/08 10:37:22;;;;;;;21.15;7.60;;;;;;;12.51;94.57;93944.06;5062402;28;20048;-79
2023/11/08 10:39:47;;;;;;;28.92;8.45;;;;;;;12.58;94.92;93950.47;5062276;28;20067;-83
2023/11/08 10:42:13;;;;;;;18.80;7.05;;;;;;;12.68;94.88;93956.53;5060987;28;20037;-82
2023/11/08 10:44:39;;;;;;;22.50;6.90;;;;;;;12.76;94.37;93948.47;5062393;28;20370;-82
2023/11/08 10:47:04;;;;;;;24.15;7.93;;;;;;;12.86;94.01;93939.28;5062413;28;20043;-82
2023/11/08 10:49:32;;;;;;;18.38;6.28;;;;;;;12.96;93.82;93936.22;5062559;28;20056;-83
2023/11/08 10:51:58;;;;;;;18.45;6.75;;;;;;;12.97;93.27;93953.84;5062634;28;20017;-83
2023/11/08 10:54:23;;;;;;;21.17;5.38;;;;;;;12.97;92.97;93956.53;5062214;28;20334;-83
2023/11/08 10:56:50;;;;;;;16.27;4.53;;;;;;;12.89;92.34;93957.38;5061014;28;20021;-83
2023/11/08 10:59:18;;;;;;;18.58;6.35;;;;;;;12.82;93.30;93952.53;5060947;28;20048;-82
2023/11/08 11:01:45;;;;;;;14.80;4.63;;;;;;;12.71;94.21;93966.59;5061128;28;20025;-83
2023/11/08 11:04:15;;;;;;;13.05;2.90;;;;;;;12.59;94.14;93968.06;5061067;28;20282;-83
2023/11/08 11:06:40;;;;;;;8.10;3.03;;;;;;;12.42;94.25;93976.19;5062161;28;20032;-83
2023/11/08 11:09:10;;;;;;;8.07;2.90;;;;;;;12.28;95.71;93980.97;5062132;28;20021;-83
2023/11/08 11:11:50;;;;;;;11.65;3.10;;;;;;;12.18;96.74;93987.44;5094361;28;20027;-83
2023/11/08 11:14:36;;;;;;;11.35;3.05;;;;;;;11.91;98.47;93984.06;5062240;28;20092;-83
2023/11/08 11:17:14;;;;;;;6.32;1.73;;;;;;;11.76;98.46;94001.31;5062365;28;20025;-83
2023/11/08 11:19:43;;;;;;;5.40;1.20;;;;;;;11.58;99.34;94003.22;5064667;28;20032;-82
2023/11/08 11:22:15;;;;;;;9.18;1.40;;;;;;;11.48;99.79;94008.09;5065483;28;20044;-80